createdAt,value
2022-12-19T00:00:39.475Z,-11.86
2022-12-19T00:03:56.275Z,-11.94
2022-12-19T00:07:08.382Z,-12.26
2022-12-19T00:10:20.537Z,-12.36
2022-12-19T00:13:40.977Z,-12.30
2022-12-19T00:16:48.172Z,-12.34
2022-12-19T00:20:00.433Z,-12.37
2022-12-19T00:23:12.535Z,-12.35
2022-12-19T00:26:27.167Z,-12.41
2022-12-19T00:29:39.503Z,-12.36
2022-12-19T00:32:51.994Z,-12.57
2022-12-19T00:36:12.421Z,-12.43
2022-12-19T00:39:24.423Z,-12.39
2022-12-19T00:42:37.133Z,-12.61
2022-12-19T00:45:49.186Z,-12.53
2022-12-19T00:49:02.813Z,-12.63
2022-12-19T00:52:15.660Z,-12.77
2022-12-19T00:55:27.571Z,-12.91
2022-12-19T00:58:44.936Z,-12.82
2022-12-19T01:01:53.868Z,-12.76
2022-12-19T01:05:05.934Z,-12.76
2022-12-19T01:08:18.505Z,-12.69
2022-12-19T01:11:42.374Z,-12.60
2022-12-19T01:14:54.312Z,-12.62
2022-12-19T01:18:10.344Z,-12.60
2022-12-19T01:21:22.256Z,-12.58
2022-12-19T01:24:36.313Z,-12.54
2022-12-19T01:27:48.420Z,-12.62
2022-12-19T01:31:00.254Z,-12.61
2022-12-19T01:34:12.313Z,-12.53
2022-12-19T01:37:24.937Z,-12.63
2022-12-19T01:40:37.642Z,-12.75
2022-12-19T01:44:08.806Z,-12.63
2022-12-19T01:47:21.415Z,-12.67
2022-12-19T01:50:39.233Z,-12.74
2022-12-19T01:53:58.671Z,-12.96
2022-12-19T01:57:15.524Z,-13.03
2022-12-19T02:00:29.255Z,-13.16
2022-12-19T02:03:43.511Z,-13.18
2022-12-19T02:07:00.179Z,-13.12
2022-12-19T02:10:15.515Z,-13.14
2022-12-19T02:13:29.963Z,-13.17
2022-12-19T02:16:51.966Z,-13.09
2022-12-19T02:20:45.031Z,-13.08
2022-12-19T02:24:50.947Z,-13.17
2022-12-19T02:28:42.672Z,-13.25
2022-12-19T02:31:59.945Z,-13.29
2022-12-19T02:35:21.168Z,-13.30
2022-12-19T02:38:40.088Z,-13.33
2022-12-19T02:41:57.244Z,-13.37
2022-12-19T02:45:13.406Z,-13.46
2022-12-19T02:48:28.313Z,-13.51
2022-12-19T02:51:40.486Z,-13.71
2022-12-19T02:54:55.469Z,-13.71
2022-12-19T02:58:56.820Z,-13.69
2022-12-19T03:02:14.618Z,-13.67
2022-12-19T03:05:31.298Z,-13.55
2022-12-19T03:08:50.642Z,-13.56
2022-12-19T03:12:11.612Z,-13.55
2022-12-19T03:15:24.519Z,-13.50
2022-12-19T03:18:39.472Z,-13.63
2022-12-19T03:21:54.475Z,-13.64
2022-12-19T03:25:06.807Z,-13.67
2022-12-19T03:28:24.020Z,-13.78
2022-12-19T03:31:39.311Z,-13.72
2022-12-19T03:34:55.477Z,-13.61
2022-12-19T03:38:10.823Z,-13.64
2022-12-19T03:41:27.454Z,-13.57
2022-12-19T03:44:43.854Z,-13.57
2022-12-19T03:48:00.361Z,-13.55
2022-12-19T03:51:15.043Z,-13.36
2022-12-19T03:54:31.954Z,-13.20
2022-12-19T03:57:49.780Z,-13.11
2022-12-19T04:01:03.338Z,-13.31
2022-12-19T04:04:16.741Z,-13.18
2022-12-19T04:07:30.280Z,-13.09
2022-12-19T04:10:48.710Z,-13.12
2022-12-19T04:14:05.976Z,-13.12
2022-12-19T04:17:24.547Z,-13.20
2022-12-19T04:20:37.851Z,-13.16
2022-12-19T04:23:54.891Z,-13.17
2022-12-19T04:27:09.684Z,-12.97
2022-12-19T04:30:23.705Z,-12.96
2022-12-19T04:33:35.696Z,-12.97
2022-12-19T04:36:47.694Z,-12.89
2022-12-19T04:39:59.689Z,-12.91
2022-12-19T04:43:11.898Z,-12.99
2022-12-19T04:46:24.271Z,-12.97
2022-12-19T04:49:37.953Z,-12.95
2022-12-19T04:52:53.270Z,-12.86
2022-12-19T04:56:11.322Z,-12.72
2022-12-19T04:59:23.367Z,-12.56
2022-12-19T05:02:35.722Z,-12.52
2022-12-19T05:05:47.784Z,-12.41
2022-12-19T05:08:59.765Z,-12.54
2022-12-19T05:12:12.920Z,-12.52
2022-12-19T05:15:25.036Z,-12.51
2022-12-19T05:18:37.837Z,-12.57
2022-12-19T05:21:49.597Z,-12.64
2022-12-19T05:25:01.540Z,-12.67
2022-12-19T05:28:13.562Z,-12.60
2022-12-19T05:31:27.333Z,-12.60
2022-12-19T05:34:39.433Z,-12.60
2022-12-19T05:37:51.292Z,-12.57
2022-12-19T05:41:03.228Z,-12.58
2022-12-19T05:44:15.391Z,-12.53
2022-12-19T05:47:27.325Z,-12.54
2022-12-19T05:50:39.530Z,-12.53
2022-12-19T05:53:54.405Z,-12.53
2022-12-19T05:57:06.206Z,-12.50
2022-12-19T06:00:22.084Z,-12.59
2022-12-19T06:03:33.986Z,-12.65
2022-12-19T06:06:46.158Z,-12.70
2022-12-19T06:09:59.089Z,-12.73
2022-12-19T06:13:11.104Z,-12.76
2022-12-19T06:16:25.421Z,-12.84
2022-12-19T06:19:37.678Z,-12.80
2022-12-19T06:22:49.545Z,-12.89
2022-12-19T06:26:04.208Z,-12.96
2022-12-19T06:29:16.890Z,-12.93
2022-12-19T06:32:31.323Z,-12.92
2022-12-19T06:35:42.992Z,-13.00
2022-12-19T06:38:56.005Z,-13.06
2022-12-19T06:42:23.162Z,-13.13
2022-12-19T06:45:35.017Z,-13.02
2022-12-19T06:48:47.306Z,-13.07
2022-12-19T06:52:03.918Z,-13.07
2022-12-19T06:55:16.210Z,-13.09
2022-12-19T06:58:28.652Z,-13.05
2022-12-19T07:01:51.049Z,-13.08
2022-12-19T07:05:08.677Z,-13.03
2022-12-19T07:08:20.904Z,-12.99
2022-12-19T07:11:32.838Z,-12.93
2022-12-19T07:14:47.766Z,-13.03
2022-12-19T07:17:59.620Z,-12.90
2022-12-19T07:21:14.823Z,-12.84
2022-12-19T07:24:27.153Z,-12.77
2022-12-19T07:27:40.060Z,-12.70
2022-12-19T07:30:52.164Z,-12.80
2022-12-19T07:34:04.172Z,-12.86
2022-12-19T07:37:16.091Z,-12.77
2022-12-19T07:40:28.065Z,-12.69
2022-12-19T07:43:40.277Z,-12.72
2022-12-19T07:46:52.201Z,-12.64
2022-12-19T07:50:04.595Z,-12.54
2022-12-19T07:53:16.480Z,-12.46
2022-12-19T07:56:28.399Z,-12.42
2022-12-19T07:59:40.595Z,-12.29
2022-12-19T08:02:53.344Z,-12.30
2022-12-19T08:06:10.832Z,-12.28
2022-12-19T08:09:23.427Z,-12.30
2022-12-19T08:12:35.452Z,-12.33
2022-12-19T08:15:47.457Z,-12.18
2022-12-19T08:18:59.872Z,-12.26
2022-12-19T08:22:11.785Z,-12.18
2022-12-19T08:25:23.917Z,-12.03
2022-12-19T08:28:37.082Z,-12.03
2022-12-19T08:31:48.906Z,-12.01
2022-12-19T08:35:00.796Z,-11.86
2022-12-19T08:38:12.914Z,-11.83
2022-12-19T08:41:25.430Z,-11.82
2022-12-19T08:44:37.386Z,-11.76
2022-12-19T08:47:49.854Z,-11.84
2022-12-19T08:51:05.214Z,-11.69
2022-12-19T08:54:17.384Z,-11.71
2022-12-19T08:57:29.209Z,-11.59
2022-12-19T09:00:41.115Z,-11.54
2022-12-19T09:05:11.148Z,-11.48
2022-12-19T09:07:08.300Z,-11.46
2022-12-19T09:10:20.719Z,-11.41
2022-12-19T09:13:33.493Z,-11.39
2022-12-19T09:16:45.618Z,-11.31
2022-12-19T09:19:57.751Z,-11.23
2022-12-19T09:23:09.843Z,-11.21
2022-12-19T09:26:22.997Z,-11.11
2022-12-19T09:29:36.281Z,-11.16
2022-12-19T09:32:48.298Z,-11.03
2022-12-19T09:36:02.045Z,-11.09
2022-12-19T09:39:16.632Z,-11.06
2022-12-19T09:42:46.383Z,-10.90
2022-12-19T09:46:04.838Z,-10.82
2022-12-19T09:49:23.333Z,-10.75
2022-12-19T09:52:40.058Z,-10.70
2022-12-19T09:55:50.980Z,-10.71
2022-12-19T09:59:09.166Z,-10.60
2022-12-19T10:02:38.817Z,-10.51
2022-12-19T10:07:07.900Z,-10.49
2022-12-19T10:11:18.131Z,-10.38
2022-12-19T10:12:51.392Z,-10.24
2022-12-19T10:16:04.701Z,-10.20
2022-12-19T10:19:23.512Z,-10.09
2022-12-19T10:22:43.027Z,-9.96
2022-12-19T10:26:06.897Z,-9.72
2022-12-19T10:29:46.606Z,-9.64
2022-12-19T10:33:11.172Z,-9.58
2022-12-19T10:36:48.679Z,-9.49
2022-12-19T10:39:49.463Z,-9.38
2022-12-19T10:43:10.521Z,-9.14
2022-12-19T10:46:28.109Z,-8.93
2022-12-19T10:49:40.166Z,-8.80
2022-12-19T10:53:03.579Z,-8.66
2022-12-19T10:56:36.747Z,-8.71
2022-12-19T10:59:42.779Z,-8.60
2022-12-19T11:03:00.017Z,-8.54
2022-12-19T11:06:33.692Z,-8.60
2022-12-19T11:09:52.419Z,-8.44
2022-12-19T11:19:00.343Z,-8.41
2022-12-19T11:21:41.834Z,-8.33
2022-12-19T11:29:16.310Z,-8.35
2022-12-19T11:30:37.377Z,-8.09
2022-12-19T11:30:43.171Z,-8.26
2022-12-19T11:31:43.801Z,-8.40
2022-12-19T11:32:49.724Z,-7.96
2022-12-19T11:36:04.845Z,-7.87
2022-12-19T11:39:23.168Z,-7.48
2022-12-19T11:42:42.242Z,-7.22
2022-12-19T11:46:01.242Z,-7.12
2022-12-19T11:49:21.646Z,-6.93
2022-12-19T11:56:01.988Z,-6.86
2022-12-19T11:59:23.151Z,-7.04
2022-12-19T12:03:22.211Z,-7.03
2022-12-19T12:06:38.624Z,-7.20
2022-12-19T12:12:36.810Z,-7.32
2022-12-19T12:20:23.566Z,-7.41
2022-12-19T12:31:04.850Z,-7.50
2022-12-19T12:31:08.709Z,-7.46
2022-12-19T12:31:31.375Z,-7.44
2022-12-19T12:31:40.238Z,-7.45
2022-12-19T12:31:46.190Z,-7.46
2022-12-19T12:35:48.801Z,-7.45
2022-12-19T12:40:39.525Z,-7.48
2022-12-19T12:44:04.966Z,-7.52
2022-12-19T12:47:25.711Z,-7.49
2022-12-19T12:50:39.852Z,-7.53
2022-12-19T12:53:57.564Z,-7.67
2022-12-19T12:57:10.833Z,-7.78
2022-12-19T13:00:28.886Z,-7.80
2022-12-19T13:03:41.132Z,-7.82
2022-12-19T13:07:29.423Z,-7.83
2022-12-19T13:10:43.731Z,-7.90
2022-12-19T13:14:04.702Z,-7.82
2022-12-19T13:17:18.285Z,-7.83
2022-12-19T13:20:50.881Z,-7.81
2022-12-19T13:24:27.729Z,-7.89
2022-12-19T13:27:49.649Z,-7.90
2022-12-19T13:31:27.751Z,-7.98
2022-12-19T13:34:52.689Z,-7.94
2022-12-19T13:40:00.501Z,-7.97
2022-12-19T13:41:59.797Z,-8.00
2022-12-19T13:45:23.767Z,-8.07
2022-12-19T13:48:49.993Z,-8.12
2022-12-19T13:52:08.400Z,-8.09
2022-12-19T13:55:22.431Z,-8.05
2022-12-19T13:58:41.163Z,-8.05
2022-12-19T14:01:57.158Z,-8.07
2022-12-19T14:05:11.085Z,-8.11
2022-12-19T14:08:28.032Z,-8.13
2022-12-19T14:12:29.684Z,-8.18
2022-12-19T14:15:13.975Z,-8.21
2022-12-19T14:18:43.434Z,-8.31
2022-12-19T14:22:04.209Z,-8.29
2022-12-19T14:26:09.739Z,-8.30
2022-12-19T14:28:30.077Z,-8.31
2022-12-19T14:32:23.903Z,-8.45
2022-12-19T14:36:08.442Z,-8.50
2022-12-19T14:39:20.892Z,-8.53
2022-12-19T14:42:02.808Z,-8.61
2022-12-19T14:53:51.549Z,-8.59
2022-12-19T14:54:11.035Z,-8.70
2022-12-19T14:54:34.889Z,-8.70
2022-12-19T14:59:46.410Z,-8.76
2022-12-19T15:02:59.699Z,-8.77
2022-12-19T15:07:05.469Z,-8.77
2022-12-19T15:11:01.104Z,-8.80
2022-12-19T15:14:54.327Z,-8.83
2022-12-19T15:16:36.466Z,-8.85
2022-12-19T15:19:48.963Z,-8.84
2022-12-19T15:23:00.935Z,-8.84
2022-12-19T15:26:18.698Z,-8.82
2022-12-19T15:29:30.942Z,-8.77
2022-12-19T15:32:43.032Z,-8.75
2022-12-19T15:35:55.749Z,-8.76
2022-12-19T15:39:07.999Z,-8.80
2022-12-19T15:42:27.354Z,-8.87
2022-12-19T15:45:41.202Z,-8.88
2022-12-19T15:48:57.505Z,-8.89
2022-12-19T15:52:15.343Z,-8.96
2022-12-19T15:55:29.720Z,-8.95
2022-12-19T15:58:41.641Z,-8.93
2022-12-19T16:01:54.000Z,-9.04
2022-12-19T16:05:06.366Z,-9.04
2022-12-19T16:08:23.454Z,-9.03
2022-12-19T16:11:37.068Z,-9.02
2022-12-19T16:14:51.362Z,-9.01
2022-12-19T16:18:07.034Z,-9.10
2022-12-19T16:21:33.922Z,-9.05
2022-12-19T16:24:44.124Z,-9.05
2022-12-19T16:28:00.680Z,-9.03
2022-12-19T16:31:23.615Z,-9.06
2022-12-19T16:34:36.407Z,-9.05
2022-12-19T16:37:48.733Z,-9.05
2022-12-19T16:41:02.917Z,-9.15
2022-12-19T16:44:22.442Z,-9.09
2022-12-19T16:47:34.679Z,-9.14
2022-12-19T16:50:47.107Z,-9.12
2022-12-19T16:54:02.056Z,-9.13
2022-12-19T16:57:22.428Z,-9.05
2022-12-19T17:00:34.768Z,-9.03
2022-12-19T17:03:49.923Z,-9.05
2022-12-19T17:07:02.672Z,-9.10
2022-12-19T17:10:21.339Z,-9.13
2022-12-19T17:13:32.789Z,-9.21
2022-12-19T17:16:46.622Z,-9.23
2022-12-19T17:20:02.428Z,-9.22
2022-12-19T17:23:22.350Z,-9.19
2022-12-19T17:26:35.634Z,-9.17
2022-12-19T17:29:47.944Z,-9.29
2022-12-19T17:33:03.429Z,-9.38
2022-12-19T17:36:24.851Z,-9.34
2022-12-19T17:39:35.978Z,-9.33
2022-12-19T17:42:48.160Z,-9.30
2022-12-19T17:46:00.723Z,-9.30
2022-12-19T17:49:16.201Z,-9.30
2022-12-19T17:52:29.775Z,-9.27
2022-12-19T17:55:41.693Z,-9.28
2022-12-19T17:58:55.736Z,-9.27
2022-12-19T18:02:07.984Z,-9.26
2022-12-19T18:05:28.127Z,-9.22
2022-12-19T18:08:40.436Z,-9.22
2022-12-19T18:11:53.256Z,-9.24
2022-12-19T18:15:06.032Z,-9.23
2022-12-19T18:18:23.962Z,-9.23
2022-12-19T18:21:36.013Z,-9.19
2022-12-19T18:24:48.222Z,-9.09
2022-12-19T18:28:01.157Z,-8.98
2022-12-19T18:31:22.271Z,-9.02
2022-12-19T18:34:36.879Z,-8.99
2022-12-19T18:37:49.120Z,-8.95
2022-12-19T18:41:01.359Z,-9.00
2022-12-19T18:44:13.443Z,-8.99
2022-12-19T18:47:30.374Z,-8.98
2022-12-19T18:50:42.567Z,-8.98
2022-12-19T18:53:55.815Z,-9.03
2022-12-19T18:57:08.005Z,-9.01
2022-12-19T19:00:25.478Z,-8.97
2022-12-19T19:03:41.988Z,-8.96
2022-12-19T19:06:55.461Z,-8.90
2022-12-19T19:10:10.393Z,-8.90
2022-12-19T19:13:26.952Z,-8.87
2022-12-19T19:16:40.082Z,-8.89
2022-12-19T19:19:52.710Z,-8.91
2022-12-19T19:23:05.481Z,-8.95
2022-12-19T19:26:18.035Z,-8.85
2022-12-19T19:29:30.235Z,-8.78
2022-12-19T19:32:45.206Z,-8.72
2022-12-19T19:36:04.655Z,-8.64
2022-12-19T19:39:15.211Z,-8.59
2022-12-19T19:42:27.409Z,-8.55
2022-12-19T19:45:43.138Z,-8.43
2022-12-19T19:48:53.736Z,-8.37
2022-12-19T19:52:06.041Z,-8.27
2022-12-19T19:55:19.171Z,-8.15
2022-12-19T19:58:31.685Z,-8.08
2022-12-19T20:01:43.976Z,-7.96
2022-12-19T20:04:56.239Z,-7.91
2022-12-19T20:08:08.638Z,-7.87
2022-12-19T20:11:21.888Z,-7.81
2022-12-19T20:14:34.660Z,-7.70
2022-12-19T20:17:46.876Z,-7.60
2022-12-19T20:20:59.274Z,-7.54
2022-12-19T20:24:12.910Z,-7.47
2022-12-19T20:27:24.972Z,-7.42
2022-12-19T20:30:37.441Z,-7.43
2022-12-19T20:33:52.920Z,-7.34
2022-12-19T20:37:05.931Z,-7.26
2022-12-19T20:40:19.612Z,-7.21
2022-12-19T20:43:32.345Z,-7.14
2022-12-19T20:46:44.928Z,-7.07
2022-12-19T20:49:57.673Z,-7.02
2022-12-19T20:53:10.073Z,-6.95
2022-12-19T20:56:26.307Z,-6.84
2022-12-19T20:59:38.908Z,-6.72
2022-12-19T21:03:26.275Z,-6.66
2022-12-19T21:06:06.339Z,-6.60
2022-12-19T21:09:18.532Z,-6.53
2022-12-19T21:12:30.660Z,-6.46
2022-12-19T21:15:42.794Z,-6.38
2022-12-19T21:18:56.386Z,-6.39
2022-12-19T21:22:08.315Z,-6.33
2022-12-19T21:25:21.078Z,-6.29
2022-12-19T21:28:33.945Z,-6.23
2022-12-19T21:31:45.883Z,-6.21
2022-12-19T21:34:59.839Z,-6.19
2022-12-19T21:38:12.067Z,-6.15
2022-12-19T21:41:24.953Z,-6.10
2022-12-19T21:44:37.564Z,-6.11
2022-12-19T21:47:50.806Z,-6.07
2022-12-19T21:51:04.198Z,-6.03
2022-12-19T21:54:17.041Z,-5.95
2022-12-19T21:57:29.023Z,-5.98
2022-12-19T22:00:41.386Z,-5.96
2022-12-19T22:03:53.945Z,-5.95
2022-12-19T22:07:06.466Z,-5.91
2022-12-19T22:10:19.692Z,-5.91
2022-12-19T22:13:32.203Z,-5.86
2022-12-19T22:16:44.690Z,-5.82
2022-12-19T22:19:57.022Z,-5.83
2022-12-19T22:23:13.111Z,-5.77
2022-12-19T22:26:26.822Z,-5.67
2022-12-19T22:29:38.934Z,-5.60
2022-12-19T22:32:50.965Z,-5.57
2022-12-19T22:36:04.951Z,-5.50
2022-12-19T22:39:19.714Z,-5.46
2022-12-19T22:42:33.225Z,-5.42
2022-12-19T22:45:45.584Z,-5.42
2022-12-19T22:48:59.065Z,-5.42
2022-12-19T22:52:11.275Z,-5.41
2022-12-19T22:55:23.688Z,-5.34
2022-12-19T22:58:36.344Z,-5.31
2022-12-19T23:01:49.538Z,-5.29
2022-12-19T23:05:01.836Z,-5.25
2022-12-19T23:08:14.151Z,-5.23
2022-12-19T23:11:29.896Z,-5.21
2022-12-19T23:14:41.970Z,-5.20
2022-12-19T23:17:53.965Z,-5.17
2022-12-19T23:21:17.549Z,-5.13
2022-12-19T23:24:29.727Z,-5.18
2022-12-19T23:27:41.630Z,-5.15
2022-12-19T23:30:53.749Z,-5.10
2022-12-19T23:34:06.797Z,-5.05
2022-12-19T23:37:18.978Z,-5.01
2022-12-19T23:40:31.164Z,-4.99
2022-12-19T23:43:45.784Z,-4.94
2022-12-19T23:47:02.987Z,-4.96
2022-12-19T23:50:14.756Z,-4.94
2022-12-19T23:53:26.649Z,-4.93
2022-12-19T23:56:39.920Z,-4.90
2022-12-19T23:59:51.876Z,-4.86
